Latest Weather Observations for Mount Keith

IDW60801

Issued at 12:53 pm WST Tuesday 10 December 2019 (issued every 10 minutes, with the page automatically refreshed every 10 minutes)

About weather observations | Map of weather stations | Latest weather observations for WA | Other Formats
Station Details ID: 512019 Name: MOUNT KEITH Lat: -27.29 Lon: 120.55 Height: 542.33 m
Data from the previous 72 hours. | See also: Recent months for locations in Western Australia
Date/Time
WST
Temp
°C
App
Temp
°C
Dew
Point
°C
Rel
Hum
%
Delta-T
°C
Wind Press
QNH
hPa
Press
MSL
hPa
Rain since
9am
mm
Dir  Spd
km/h
Gust
km/h
Spd
kts
Gust
kts
10/12:30pm 36.3 32.1 7.4 17 16.5 ESE 19 28 10 15 1015.4 1011.3 0.0
10/12:00pm 35.6 31.4 8.4 19 15.7 ESE 20 32 11 17 1015.9 1011.8 0.0
10/11:30am 35.4 30.8 8.3 19 15.6 E 22 32 12 17 1016.3 1012.3 0.0
10/11:00am 35.0 30.7 9.4 21 15.0 E 22 30 12 16 1016.7 1012.7 0.0
10/10:30am 33.6 29.2 9.0 22 14.2 E 22 35 12 19 1017.2 1013.1 0.0
10/10:00am 32.2 27.8 9.1 24 13.3 E 22 37 12 20 1017.4 1013.3 0.0
10/09:30am 31.0 26.5 8.7 25 12.7 E 22 37 12 20 1017.7 1013.6 0.0
10/09:00am 30.1 24.4 8.5 26 12.2 E 28 37 15 20 1017.7 1013.6 0.0
10/08:30am 29.5 24.2 8.5 27 11.8 E 26 37 14 20 1017.8 1013.7 0.0
10/08:00am 28.5 23.4 7.7 27 11.5 E 24 37 13 20 1017.8 1013.7 0.0
10/07:30am 27.4 21.5 7.3 28 11.0 ESE 28 37 15 20 1018.0 1014.0 0.0
10/07:00am 27.0 21.7 6.9 28 10.9 ESE 24 33 13 18 1017.7 1013.6 0.0
10/06:30am 26.1 20.4 6.7 29 10.4 E 26 35 14 19 1017.4 1013.3 0.0
10/06:00am 25.5 20.9 6.7 30 10.1 E 20 28 11 15 1017.2 1013.1 0.0
10/05:30am 24.9 20.5 6.6 31 9.7 ESE 19 26 10 14 1017.1 1013.0 0.0
10/05:00am 24.3 20.7 6.6 32 9.4 ESE 15 19 8 10 1016.7 1012.7 0.0
10/04:30am 24.7 21.0 6.4 31 9.7 E 15 20 8 11 1016.3 1012.3 0.0
10/04:00am 25.3 20.8 7.0 31 9.8 ESE 20 26 11 14 1015.8 1011.7 0.0
10/03:30am 25.8 21.5 6.9 30 10.2 ESE 19 26 10 14 1015.9 1011.8 0.0
10/03:00am 26.4 21.9 6.9 29 10.5 E 20 30 11 16 1015.9 1011.8 0.0
10/02:30am 26.5 22.6 7.0 29 10.6 E 17 24 9 13 1016.1 1012.0 0.0
10/02:00am 27.1 21.8 7.0 28 10.9 ESE 24 39 13 21 1015.8 1011.7 0.0
10/01:30am 27.6 22.7 6.9 27 11.3 ESE 22 32 12 17 1015.9 1011.8 0.0
10/01:00am 28.0 23.2 7.3 27 11.3 ESE 22 32 12 17 1015.9 1011.8 0.0
10/12:30am 28.5 24.0 7.1 26 11.7 ESE 20 30 11 16 1015.9 1011.8 0.0
10/12:00am 28.9 24.4 6.9 25 12.0 ESE 20 30 11 16 1015.9 1011.8 0.0
 
Date/Time
WST
Temp
°C
App
Temp
°C
Dew
Point
°C
Rel
Hum
%
Delta-T
°C
Wind Press
QNH
hPa
Press
MSL
hPa
Rain since
9am
mm
Dir  Spd
km/h
Gust
km/h
Spd
kts
Gust
kts
09/11:30pm 29.4 24.5 6.7 24 12.4 ESE 22 32 12 17 1016.0 1011.9 0.0
09/11:00pm 29.9 25.1 7.2 24 12.5 ESE 22 33 12 18 1016.0 1011.9 0.0
09/10:30pm 30.4 25.1 7.0 23 12.9 ESE 24 33 13 18 1016.0 1011.9 0.0
09/10:00pm 30.9 25.7 7.4 23 13.1 SE 24 33 13 18 1016.1 1012.0 0.0
09/09:30pm 31.3 25.7 7.1 22 13.5 SE 26 33 14 18 1016.1 1012.0 0.0
09/09:00pm 31.7 26.2 7.4 22 13.6 SE 26 35 14 19 1015.9 1011.8 0.0
09/08:30pm 32.1 26.7 6.3 20 14.2 SE 24 32 13 17 1015.6 1011.5 0.0
09/08:00pm 32.7 27.6 6.1 19 14.6 SE 22 32 12 17 1015.5 1011.4 0.0
09/07:30pm 33.2 28.4 5.7 18 15.1 SE 20 28 11 15 1015.4 1011.3 0.0
09/07:00pm 33.8 29.2 5.4 17 15.6 SE 19 24 10 13 1015.1 1011.0 0.0
09/06:30pm 34.4 29.3 5.8 17 15.8 SSE 22 28 12 15 1014.8 1010.8 0.0
09/06:00pm 34.9 30.3 5.4 16 16.2 SE 19 22 10 12 1014.5 1010.5 0.0
09/05:30pm 35.5 30.9 5.8 16 16.5 ESE 19 26 10 14 1014.3 1010.2 0.0
09/05:00pm 35.5 32.6 6.7 17 16.2 SSE 11 19 6 10 1014.3 1010.2 0.0
09/04:30pm 35.9 31.4 6.2 16 16.6 SSE 19 30 10 16 1014.3 1010.2 0.0
09/04:00pm 35.3 31.1 5.7 16 16.4 SE 17 24 9 13 1014.3 1010.2 0.0
09/03:30pm 35.8 31.9 7.0 17 16.3 SE 17 30 9 16 1014.4 1010.3 0.0
09/03:00pm 35.6 32.4 6.8 17 16.3 ESE 13 22 7 12 1014.8 1010.8 0.0
09/02:30pm 35.5 31.7 7.6 18 15.9 SE 17 30 9 16 1015.1 1011.0 0.0
09/02:00pm 34.3 30.1 8.1 20 15.0 ESE 20 32 11 17 1015.4 1011.3 0.0
09/01:30pm 34.3 30.6 8.1 20 15.0 E 17 28 9 15 1015.7 1011.6 0.0
09/01:00pm 34.0 29.9 8.6 21 14.6 SE 20 35 11 19 1016.0 1011.9 0.0
09/12:30pm 33.1 28.6 8.5 22 14.1 SE 22 39 12 21 1016.4 1012.4 0.0
09/12:00pm 32.5 28.2 9.3 24 13.4 E 22 35 12 19 1016.7 1012.7 0.0
09/11:30am 31.6 27.0 9.8 26 12.7 ESE 24 37 13 20 1017.2 1013.1 0.0
09/11:00am 30.2 26.4 9.7 28 11.8 ESE 20 33 11 18 1017.7 1013.6 0.0
09/10:30am 29.2 24.7 9.9 30 11.1 SE 24 37 13 20 1018.0 1014.0 0.0
09/10:00am 28.6 24.0 9.8 31 10.8 ESE 24 41 13 22 1018.2 1014.2 0.0
09/09:30am 27.4 22.4 9.7 33 10.1 ESE 26 35 14 19 1018.4 1014.4 0.0
09/09:00am 26.3 22.2 10.0 36 9.3 ESE 22 37 12 20 1018.5 1014.5 0.0
09/08:30am 25.5 20.5 9.7 37 8.9 E 26 43 14 23 1018.5 1014.5 0.0
09/08:00am 24.6 19.3 9.7 39 8.4 ESE 28 37 15 20 1018.4 1014.4 0.0
09/07:30am 24.0 18.2 9.6 40 8.0 SE 30 43 16 23 1018.2 1014.2 0.0
09/07:00am 24.1 18.8 9.7 40 8.1 ESE 28 43 15 23 1017.8 1013.7 0.0
09/06:30am 23.3 17.2 9.7 42 7.6 ESE 32 46 17 25 1017.4 1013.3 0.0
09/06:00am 23.1 17.8 9.8 43 7.4 ESE 28 39 15 21 1016.8 1012.8 0.0
09/05:30am 23.1 17.7 9.5 42 7.5 SE 28 39 15 21 1016.4 1012.4 0.0
09/05:00am 23.6 18.4 7.3 35 8.7 SE 24 32 13 17 1015.8 1011.7 0.0
09/04:30am 24.2 18.3 4.0 27 10.2 SE 24 32 13 17 1015.6 1011.5 0.0
09/04:00am 24.7 18.3 3.4 25 10.7 SE 26 37 14 20 1015.2 1011.1 0.0
09/03:30am 24.6 18.5 2.7 24 10.9 SE 24 32 13 17 1014.7 1010.7 0.0
09/03:00am 25.0 18.7 1.8 22 11.3 SSE 24 33 13 18 1014.6 1010.6 0.0
09/02:30am 25.4 19.7 0.8 20 11.8 SSE 20 28 11 15 1014.6 1010.6 0.0
09/02:00am 25.5 20.5 -1.3 17 12.4 S 15 20 8 11 1014.7 1010.7 0.0
09/01:30am 25.6 20.4 -2.9 15 12.8 S 15 19 8 10 1014.8 1010.8 0.0
09/01:00am 25.9 20.6 -3.6 14 13.1 S 15 20 8 11 1015.1 1011.0 0.0
09/12:30am 26.1 21.2 -3.5 14 13.2 SSW 13 19 7 10 1015.3 1011.2 0.0
09/12:00am 26.6 21.5 -2.1 15 13.2 S 15 19 8 10 1015.5 1011.4 0.0
 
Date/Time
WST
Temp
°C
App
Temp
°C
Dew
Point
°C
Rel
Hum
%
Delta-T
°C
Wind Press
QNH
hPa
Press
MSL
hPa
Rain since
9am
mm
Dir  Spd
km/h
Gust
km/h
Spd
kts
Gust
kts
08/11:30pm 27.1 21.7 -1.7 15 13.4 SSW 17 20 9 11 1015.7 1011.6 0.0
08/11:00pm 27.6 21.9 -0.5 16 13.4 SSW 19 24 10 13 1015.7 1011.6 0.0
08/10:30pm 28.1 22.4 0.8 17 13.4 SSW 20 26 11 14 1015.7 1011.6 0.0
08/10:00pm 28.6 23.0 1.2 17 13.6 SSW 20 28 11 15 1015.7 1011.6 0.0
08/09:30pm 29.2 23.1 2.5 18 13.6 SSW 24 35 13 19 1015.5 1011.4 0.0
08/09:00pm 29.9 23.1 3.0 18 13.9 SSW 28 37 15 20 1014.8 1010.8 0.0
08/08:30pm 30.9 25.0 3.8 18 14.2 SSW 24 35 13 19 1014.4 1010.3 0.0
08/08:00pm 31.6 26.2 4.4 18 14.5 SSW 22 35 12 19 1014.1 1010.0 0.0
08/07:30pm 32.9 28.2 2.9 15 15.7 SW 17 22 9 12 1013.7 1009.6 0.0
08/07:00pm 33.3 28.6 3.2 15 15.9 SW 17 22 9 12 1013.3 1009.2 0.0
08/06:30pm 34.2 30.2 2.9 14 16.5 WSW 13 17 7 9 1012.8 1008.8 0.0
08/06:00pm 34.8 31.1 2.3 13 17.1 W 11 22 6 12 1012.4 1008.3 0.0
08/05:30pm 35.2 29.5 2.6 13 17.2 W 22 35 12 19 1012.1 1008.0 0.0
08/05:00pm 35.2 31.5 2.6 13 17.2 NW 11 26 6 14 1011.9 1007.8 0.0
08/04:30pm 36.0 31.3 3.3 13 17.5 WSW 17 32 9 17 1011.9 1007.8 0.0
08/04:00pm 35.7 30.6 4.1 14 17.1 WSW 20 32 11 17 1012.0 1007.9 0.0
08/03:30pm 35.7 31.2 4.1 14 17.1 WNW 17 32 9 17 1012.2 1008.1 0.0
08/03:00pm 35.1 30.7 4.6 15 16.6 WNW 17 35 9 19 1012.6 1008.5 0.0
08/02:30pm 34.5 30.4 4.1 15 16.4 W 15 24 8 13 1012.8 1008.8 0.0
08/02:00pm 35.8 30.5 5.1 15 16.9 W 22 37 12 20 1013.0 1009.0 0.0
08/01:30pm 34.0 29.8 5.5 17 15.7 SW 17 28 9 15 1013.2 1009.1 0.0
08/01:00pm 33.5 29.2 5.1 17 15.5 SW 17 33 9 18 1013.5 1009.4 0.0
08/12:30pm 33.4 29.2 5.9 18 15.2 WNW 17 30 9 16 1013.9 1009.8 0.0
08/12:00pm 32.6 28.1 6.0 19 14.6 SSW 19 28 10 15 1014.1 1010.0 0.0
08/11:30am 31.6 28.3 6.6 21 13.8 WSW 13 24 7 13 1014.3 1010.2 0.0
08/11:00am 30.7 26.4 7.2 23 13.0 WSW 19 28 10 15 1014.7 1010.7 0.0
08/10:30am 30.9 26.9 6.7 22 13.3 SSW 17 28 9 15 1015.1 1011.0 0.0
08/10:00am 30.5 27.1 7.7 24 12.7 SSW 15 24 8 13 1015.3 1011.2 0.0
08/09:30am 29.5 25.2 6.8 24 12.4 SW 19 28 10 15 1015.4 1011.3 0.0
08/09:00am 28.8 25.2 8.5 28 11.4 SSW 17 26 9 14 1015.5 1011.4 0.0
08/08:30am 27.9 24.5 9.2 31 10.6 S 17 24 9 13 1015.6 1011.5 0.0
08/08:00am 27.2 23.8 9.1 32 10.2 S 17 26 9 14 1015.6 1011.5 0.0
08/07:30am 26.4 22.1 9.3 34 9.6 S 22 32 12 17 1015.5 1011.4 0.0
08/07:00am 25.8 20.7 9.2 35 9.3 SSW 26 33 14 18 1015.3 1011.2 0.0
08/06:30am 25.1 20.1 9.4 37 8.8 SSW 26 33 14 18 1015.1 1011.0 0.0
08/06:00am 24.7 20.7 9.0 37 8.7 SSW 20 30 11 16 1014.9 1010.9 0.0
08/05:30am 24.2 20.4 9.0 38 8.4 SSW 19 24 10 13 1014.3 1010.2 0.0
08/05:00am 24.3 20.2 8.7 37 8.6 SSW 20 30 11 16 1013.9 1009.8 0.0
08/04:30am 24.8 20.7 8.7 36 8.9 SSW 20 30 11 16 1013.6 1009.5 0.0
08/04:00am 25.4 20.6 7.5 32 9.7 SSW 22 33 12 18 1013.0 1009.0 0.0
08/03:30am 26.0 21.4 6.6 29 10.4 SSW 20 28 11 15 1012.6 1008.5 0.0
08/03:00am 26.6 22.0 5.5 26 11.1 SSW 19 26 10 14 1012.4 1008.3 0.0
08/02:30am 27.2 22.3 4.9 24 11.7 SSW 20 28 11 15 1012.2 1008.1 0.0
08/02:00am 27.6 22.7 4.0 22 12.2 SSW 19 26 10 14 1012.0 1007.9 0.0
08/01:30am 28.1 22.9 3.7 21 12.6 SSW 20 26 11 14 1012.0 1007.9 0.0
08/01:00am 28.7 22.7 3.5 20 13.0 SW 24 32 13 17 1011.9 1007.8 0.0
08/12:30am 29.3 22.9 3.3 19 13.4 SSW 26 37 14 20 1011.9 1007.8 0.0
08/12:00am 29.8 23.3 2.9 18 13.8 SSW 26 35 14 19 1012.1 1008.0 0.0
 
Date/Time
WST
Temp
°C
App
Temp
°C
Dew
Point
°C
Rel
Hum
%
Delta-T
°C
Wind Press
QNH
hPa
Press
MSL
hPa
Rain since
9am
mm
Dir  Spd
km/h
Gust
km/h
Spd
kts
Gust
kts
07/11:30pm 30.5 22.9 2.7 17 14.3 SSW 32 41 17 22 1012.0 1007.9 0.0
07/11:00pm 31.6 24.6 1.8 15 15.2 SW 28 39 15 21 1011.9 1007.8 0.0
07/10:30pm 32.3 24.3 1.4 14 15.7 SW 33 43 18 23 1011.6 1007.5 0.0
07/10:00pm 32.8 25.2 0.8 13 16.2 SW 30 43 16 23 1011.4 1007.3 0.0
07/09:51pm 33.0 25.7 -0.2 12 16.5 SW 28 39 15 21 1011.3 1007.2 0.0
07/09:30pm 32.9 27.7 -0.2 12 16.5 WSW 17 20 9 11 1010.9 1006.8 0.0
07/09:00pm 33.6 27.9 -0.9 11 17.1 WSW 19 26 10 14 1010.7 1006.6 0.0
07/08:30pm 34.1 28.2 -0.5 11 17.3 WSW 20 28 11 15 1010.5 1006.4 0.0
07/08:00pm 34.8 27.9 0.0 11 17.6 WSW 26 33 14 18 1010.2 1006.1 0.0
07/07:30pm 35.5 28.8 -0.8 10 18.2 WSW 24 35 13 19 1009.8 1005.7 0.0
07/07:00pm 36.4 29.5 -0.1 10 18.6 WSW 26 35 14 19 1009.4 1005.2 0.0
07/06:30pm 37.1 30.4 -1.0 9 19.2 WSW 24 41 13 22 1008.9 1004.8 0.0
07/06:00pm 37.5 31.1 0.7 10 19.1 W 24 33 13 18 1008.6 1004.5 0.0
07/05:30pm 37.9 32.3 1.0 10 19.3 SW 20 28 11 15 1008.2 1004.1 0.0
07/05:00pm 38.1 30.6 1.2 10 19.4 WSW 30 43 16 23 1007.9 1003.8 0.0
07/04:30pm 39.9 34.9 1.1 9 20.5 WSW 17 33 9 18 1007.7 1003.5 0.0
07/04:00pm 37.6 34.8 2.1 11 18.9 W 6 15 3 8 1007.9 1003.8 0.0
07/03:30pm 38.7 33.7 1.6 10 19.7 NW 17 28 9 15 1007.9 1003.8 0.0
07/03:00pm 38.9 33.4 1.8 10 19.8 W 20 32 11 17 1008.1 1004.0 0.0
07/02:48pm 39.6 33.4 2.3 10 20.1 WNW 24 39 13 21 1008.2 1004.1 0.0
07/02:30pm 38.8 34.6 1.7 10 19.7 WNW 13 28 7 15 1008.2 1004.1 0.0
07/02:00pm 38.3 33.9 2.7 11 19.2 W 15 28 8 15 1008.6 1004.5 0.0
07/01:30pm 39.6 34.4 3.7 11 19.7 WNW 20 35 11 19 1009.0 1004.9 0.0
07/01:00pm 38.6 34.2 2.9 11 19.3 NNW 15 24 8 13 1009.3 1005.1 0.0

Other formats

Comma delimited format used in spreadsheet applications
http://www.bom.gov.au/fwo/IDW60801/IDW60801.99434.axf

JavaScript Object Notation format (JSON) in row-major order
http://www.bom.gov.au/fwo/IDW60801/IDW60801.99434.json

Data quality

Most of these data are generated automatically and are frequently updated. Quality checks on data are not normally performed. It is possible for incorrect values to appear. Refer to information at About Latest Weather Observations and please check the disclaimer before using these data.